Terminal Aerodrome Forecast
Issued by NWS Sterling, VA

Home | Current Version | Previous Version | Text Only | Print | Product List | Glossary On
Versions: 1 2 3 4 5 6 7 8 9 10 11 12 13 14 15 16 17 18 19 20 21 22 23 24 25
251
FTUS41 KLWX 061942 AAA
TAFDCA
TAF AMD
KDCA 061942Z 0620/0718 06007KT 2SM RA OVC008
     FM070000 05008KT 3SM -RA BR OVC003
     FM070600 35006KT P6SM OVC008
     FM070900 33006KT P6SM OVC025
     FM071200 32006KT P6SM BKN050
     FM071600 32010G17KT P6SM SCT050=

USA.gov is the U.S. government's official web portal to all federal, state and local government web resources and services.